KNEL/NEL METAR and TAF weather

Enter ICAO airport designator
Station Type Date Time Source
KNEL METAR 2022/01/25 05:00 UTC NOAA

KNEL 250500Z AUTO 14003KT OVC060 01/M03 A2984 RMK AO2 SLP105 T00111033 400110011 $


Station Type Date Time Source
KNEL Decoded METAR 2022/01/25 05:00 UTC NOAA

Lakehurst Naval Air Station, NJ, United States (KNEL) 40-02N 074-19W 24M
Jan 25, 2022 - 12:00 AM EST / 2022.01.25 0500 UTC
Wind: from the SE (140 degrees) at 3 MPH (3 KT):0
Sky conditions: overcast
Temperature: 34.0 F (1.1 C)
Dew Point: 26.1 F (-3.3 C)
Relative Humidity: 72%
Pressure (altimeter): 29.84 in. Hg (1010 hPa)
ob: KNEL 250500Z AUTO 14003KT OVC060 01/M03 A2984 RMK AO2 SLP105 T00111033 400110011
cycle: 5

Station Type Date Time Source
KNEL TAF UTC NOAA

Error!

Example: see airport list